createdAt,value
2017-05-30T00:00:35.171Z,26.78
2017-05-30T00:01:35.162Z,26.82
2017-05-30T00:02:35.462Z,26.78
2017-05-30T00:03:34.843Z,26.82
2017-05-30T00:04:35.151Z,26.71
2017-05-30T00:05:35.135Z,26.71
2017-05-30T00:06:35.126Z,26.71
2017-05-30T00:07:35.110Z,26.67
2017-05-30T00:08:35.407Z,26.79
2017-05-30T00:09:35.406Z,26.76
2017-05-30T00:10:35.088Z,26.74
2017-05-30T00:11:35.081Z,26.57
2017-05-30T00:12:35.072Z,26.59
2017-05-30T00:13:35.064Z,26.59
2017-05-30T00:14:35.040Z,26.61
2017-05-30T00:15:35.359Z,26.56
2017-05-30T00:16:35.340Z,26.59
2017-05-30T00:17:35.030Z,26.6
2017-05-30T00:18:35.320Z,26.59
2017-05-30T00:19:35.324Z,26.54
2017-05-30T00:20:34.989Z,26.45
2017-05-30T00:21:34.992Z,26.54
2017-05-30T00:22:34.674Z,26.45
2017-05-30T00:23:35.294Z,26.41
2017-05-30T00:24:34.970Z,26.44
2017-05-30T00:25:34.941Z,26.42
2017-05-30T00:26:34.945Z,26.32
2017-05-30T00:27:34.940Z,26.29
2017-05-30T00:28:35.263Z,26.29
2017-05-30T00:29:34.935Z,26.2
2017-05-30T00:30:34.594Z,26.22
2017-05-30T00:31:35.202Z,26.15
2017-05-30T00:32:35.193Z,26.11
2017-05-30T00:33:34.870Z,26.24
2017-05-30T00:34:34.570Z,26.2
2017-05-30T00:35:35.160Z,26.17
2017-05-30T00:36:34.557Z,26.1
2017-05-30T00:37:34.861Z,26.19
2017-05-30T00:38:34.839Z,26.15
2017-05-30T00:39:35.122Z,26.17
2017-05-30T00:40:34.602Z,26.08
2017-05-30T00:41:34.490Z,25.99
2017-05-30T00:42:35.173Z,25.96
2017-05-30T00:43:34.782Z,26.11
2017-05-30T00:44:34.778Z,26.04
2017-05-30T00:45:35.071Z,25.94
2017-05-30T00:46:34.852Z,26.01
2017-05-30T00:47:35.039Z,25.91
2017-05-30T00:48:35.033Z,25.84
2017-05-30T00:49:34.721Z,25.85
2017-05-30T00:50:35.041Z,25.79
2017-05-30T00:51:35.013Z,25.77
2017-05-30T00:52:35.002Z,25.74
2017-05-30T00:53:34.691Z,25.73
2017-05-30T00:54:34.980Z,25.71
2017-05-30T00:55:34.961Z,25.77
2017-05-30T00:56:34.960Z,25.7
2017-05-30T00:57:34.651Z,25.82
2017-05-30T00:58:34.932Z,25.74
2017-05-30T00:59:34.932Z,25.81
2017-05-30T01:00:34.617Z,25.79
2017-05-30T01:01:34.656Z,25.76
2017-05-30T01:02:34.293Z,25.74
2017-05-30T01:03:34.594Z,25.63
2017-05-30T01:04:34.572Z,25.56
2017-05-30T01:05:34.678Z,25.56
2017-05-30T01:06:34.564Z,25.59
2017-05-30T01:07:34.854Z,25.51
2017-05-30T01:08:34.850Z,25.56
2017-05-30T01:09:34.850Z,25.47
2017-05-30T01:10:34.810Z,25.47
2017-05-30T01:11:34.808Z,25.48
2017-05-30T01:12:34.497Z,25.55
2017-05-30T01:13:34.571Z,25.58
2017-05-30T01:14:34.791Z,25.59
2017-05-30T01:15:34.770Z,25.62
2017-05-30T01:16:34.448Z,25.66
2017-05-30T01:17:34.746Z,25.58
2017-05-30T01:18:34.431Z,25.54
2017-05-30T01:19:34.532Z,25.45
2017-05-30T01:20:34.711Z,25.48
2017-05-30T01:21:34.417Z,25.44
2017-05-30T01:22:34.433Z,25.48
2017-05-30T01:23:34.397Z,25.49
2017-05-30T01:24:34.450Z,25.44
2017-05-30T01:25:34.363Z,25.44
2017-05-30T01:26:34.361Z,25.55
2017-05-30T01:27:34.339Z,25.48
2017-05-30T01:28:34.650Z,25.47
2017-05-30T01:29:34.380Z,25.45
2017-05-30T01:30:34.002Z,25.45
2017-05-30T01:31:34.361Z,25.52
2017-05-30T01:32:34.602Z,25.39
2017-05-30T01:33:34.324Z,25.39
2017-05-30T01:34:34.583Z,25.4
2017-05-30T01:35:34.269Z,25.36
2017-05-30T01:36:34.252Z,25.36
2017-05-30T01:37:34.293Z,25.39
2017-05-30T01:38:34.592Z,25.37
2017-05-30T01:39:34.542Z,25.3
2017-05-30T01:40:34.219Z,25.26
2017-05-30T01:41:34.562Z,25.14
2017-05-30T01:42:34.205Z,25.3
2017-05-30T01:43:34.189Z,25.3
2017-05-30T01:44:34.541Z,25.34
2017-05-30T01:45:34.480Z,25.27
2017-05-30T01:46:34.190Z,25.19
2017-05-30T01:47:33.844Z,25.32
2017-05-30T01:48:33.829Z,25.26
2017-05-30T01:49:34.130Z,25.3
2017-05-30T01:50:34.144Z,25.33
2017-05-30T01:51:34.401Z,25.32
2017-05-30T01:52:34.413Z,25.26
2017-05-30T01:53:34.094Z,25.26
2017-05-30T01:54:34.083Z,25.29
2017-05-30T01:55:33.766Z,25.19
2017-05-30T01:56:34.361Z,25.21
2017-05-30T01:57:34.041Z,25.26
2017-05-30T01:58:34.333Z,25.25
2017-05-30T01:59:33.723Z,25.17
2017-05-30T02:00:34.022Z,25.17
2017-05-30T02:01:34.012Z,25.3
2017-05-30T02:02:34.312Z,25.21
2017-05-30T02:03:34.043Z,25.33
2017-05-30T02:04:34.047Z,25.29
2017-05-30T02:05:34.068Z,25.14
2017-05-30T02:06:33.943Z,25.29
2017-05-30T02:07:34.249Z,25.1
2017-05-30T02:08:34.243Z,25.14
2017-05-30T02:09:34.361Z,25.15
2017-05-30T02:10:34.221Z,25.27
2017-05-30T02:11:34.322Z,25.18
2017-05-30T02:12:33.895Z,25.11
2017-05-30T02:13:33.572Z,25.15
2017-05-30T02:14:33.870Z,25.14
2017-05-30T02:15:33.883Z,25.14
2017-05-30T02:16:34.150Z,25.15
2017-05-30T02:17:34.251Z,25.03
2017-05-30T02:18:33.841Z,25
2017-05-30T02:19:34.226Z,25.08
2017-05-30T02:20:33.504Z,25.03
2017-05-30T02:21:34.203Z,25.1
2017-05-30T02:22:34.186Z,25.18
2017-05-30T02:23:34.125Z,25.22
2017-05-30T02:24:34.175Z,25.12
2017-05-30T02:25:33.862Z,25.14
2017-05-30T02:26:34.149Z,25.12
2017-05-30T02:27:34.093Z,25.12
2017-05-30T02:28:33.734Z,25.1
2017-05-30T02:29:33.742Z,24.99
2017-05-30T02:30:34.024Z,25.02
2017-05-30T02:31:33.402Z,24.99
2017-05-30T02:32:33.992Z,24.92
2017-05-30T02:33:33.716Z,24.93
2017-05-30T02:34:33.663Z,24.93
2017-05-30T02:35:33.964Z,24.9
2017-05-30T02:36:33.646Z,24.97
2017-05-30T02:37:33.643Z,24.81
2017-05-30T02:38:33.937Z,24.71
2017-05-30T02:39:33.923Z,24.8
2017-05-30T02:40:33.923Z,24.78
2017-05-30T02:41:33.892Z,24.81
2017-05-30T02:42:33.888Z,24.9
2017-05-30T02:43:33.871Z,24.93
2017-05-30T02:44:33.560Z,24.84
2017-05-30T02:45:33.853Z,24.84
2017-05-30T02:46:33.864Z,24.84
2017-05-30T02:47:33.833Z,24.85
2017-05-30T02:48:33.523Z,24.82
2017-05-30T02:49:33.213Z,24.85
2017-05-30T02:50:33.803Z,24.78
2017-05-30T02:51:33.797Z,24.85
2017-05-30T02:52:33.482Z,24.81
2017-05-30T02:53:33.781Z,24.85
2017-05-30T02:54:33.694Z,24.85
2017-05-30T02:55:33.762Z,24.85
2017-05-30T02:56:33.444Z,24.8
2017-05-30T02:57:33.735Z,24.82
2017-05-30T02:58:33.727Z,24.89
2017-05-30T02:59:33.413Z,24.85
2017-05-30T03:00:33.697Z,24.84
2017-05-30T03:01:33.383Z,24.81
2017-05-30T03:02:33.678Z,24.81
2017-05-30T03:03:33.662Z,24.75
2017-05-30T03:04:33.051Z,24.81
2017-05-30T03:05:33.356Z,24.8
2017-05-30T03:06:33.646Z,24.81
2017-05-30T03:07:33.640Z,24.82
2017-05-30T03:08:33.643Z,24.75
2017-05-30T03:09:33.614Z,24.75
2017-05-30T03:10:33.304Z,24.78
2017-05-30T03:11:33.273Z,24.78
2017-05-30T03:12:33.265Z,24.75
2017-05-30T03:13:33.644Z,24.71
2017-05-30T03:14:33.551Z,24.7
2017-05-30T03:15:33.615Z,24.61
2017-05-30T03:16:33.220Z,24.62
2017-05-30T03:17:33.272Z,24.65
2017-05-30T03:18:33.505Z,24.59
2017-05-30T03:19:33.194Z,24.7
2017-05-30T03:20:33.497Z,24.62
2017-05-30T03:21:33.472Z,24.59
2017-05-30T03:22:33.157Z,24.58
2017-05-30T03:23:33.174Z,24.64
2017-05-30T03:24:33.438Z,24.59
2017-05-30T03:25:33.134Z,24.66
2017-05-30T03:26:32.805Z,24.69
2017-05-30T03:27:33.123Z,24.58
2017-05-30T03:28:33.103Z,24.65
2017-05-30T03:29:33.396Z,24.58
2017-05-30T03:30:33.082Z,24.59
2017-05-30T03:31:33.372Z,24.49
2017-05-30T03:32:33.366Z,24.42
2017-05-30T03:33:33.044Z,24.36
2017-05-30T03:34:33.339Z,24.4
2017-05-30T03:35:33.329Z,24.43
2017-05-30T03:36:33.321Z,24.43
2017-05-30T03:37:33.305Z,24.37
2017-05-30T03:38:33.295Z,24.4
2017-05-30T03:39:33.291Z,24.4
2017-05-30T03:40:33.274Z,24.4
2017-05-30T03:41:32.952Z,24.43
2017-05-30T03:42:33.254Z,24.39
2017-05-30T03:43:33.262Z,24.39
2017-05-30T03:44:33.235Z,24.42
2017-05-30T03:45:32.604Z,24.36
2017-05-30T03:46:33.219Z,24.39
2017-05-30T03:47:33.206Z,24.37
2017-05-30T03:48:33.184Z,24.32
2017-05-30T03:49:32.576Z,24.32
2017-05-30T03:50:32.566Z,24.4
2017-05-30T03:51:32.844Z,24.33
2017-05-30T03:52:32.849Z,24.37
2017-05-30T03:53:32.835Z,24.34
2017-05-30T03:54:32.565Z,24.33
2017-05-30T03:55:33.127Z,24.44
2017-05-30T03:56:32.809Z,24.37
2017-05-30T03:57:32.797Z,24.33
2017-05-30T03:58:32.776Z,24.39
2017-05-30T03:59:32.484Z,24.42
2017-05-30T04:00:33.195Z,24.39
2017-05-30T04:01:33.065Z,24.4
2017-05-30T04:02:33.054Z,24.34
2017-05-30T04:03:33.042Z,24.36
2017-05-30T04:04:32.715Z,24.32
2017-05-30T04:05:33.042Z,24.34
2017-05-30T04:06:32.396Z,24.34
2017-05-30T04:07:32.687Z,24.33
2017-05-30T04:08:32.444Z,24.32
2017-05-30T04:09:32.994Z,24.27
2017-05-30T04:10:32.743Z,24.25
2017-05-30T04:11:32.639Z,24.24
2017-05-30T04:12:32.635Z,24.18
2017-05-30T04:13:32.617Z,24.18
2017-05-30T04:14:32.975Z,24.18
2017-05-30T04:15:32.918Z,24.14
2017-05-30T04:16:32.624Z,24.06
2017-05-30T04:17:32.886Z,24.19
2017-05-30T04:18:32.666Z,24.1
2017-05-30T04:19:32.924Z,24.15
2017-05-30T04:20:32.535Z,24.12
2017-05-30T04:21:32.895Z,24.1
2017-05-30T04:22:32.905Z,24.12
2017-05-30T04:23:32.511Z,24.1
2017-05-30T04:24:32.867Z,24.12
2017-05-30T04:25:32.563Z,24.14
2017-05-30T04:26:32.807Z,24.12
2017-05-30T04:27:32.890Z,24.1
2017-05-30T04:28:32.766Z,24.12
2017-05-30T04:29:32.752Z,24.12
2017-05-30T04:30:32.745Z,24.17
2017-05-30T04:31:32.427Z,24.22
2017-05-30T04:32:32.735Z,24.24
2017-05-30T04:33:32.722Z,24.24
2017-05-30T04:34:32.697Z,24.27
2017-05-30T04:35:32.693Z,24.15
2017-05-30T04:36:32.675Z,24.15
2017-05-30T04:37:32.664Z,24.18
2017-05-30T04:38:32.347Z,24.17
2017-05-30T04:39:32.326Z,24.07
2017-05-30T04:40:32.625Z,24.07
2017-05-30T04:41:32.615Z,24.18
2017-05-30T04:42:32.620Z,24.06
2017-05-30T04:43:32.078Z,24.07
2017-05-30T04:44:32.295Z,24.09
2017-05-30T04:45:32.291Z,24.09
2017-05-30T04:46:32.369Z,24.12
2017-05-30T04:47:32.551Z,24.21
2017-05-30T04:48:32.332Z,24.27
2017-05-30T04:49:32.545Z,24.12
2017-05-30T04:50:31.908Z,24.24
2017-05-30T04:51:31.901Z,24.12
2017-05-30T04:52:31.880Z,24.1
2017-05-30T04:53:32.182Z,24.12
2017-05-30T04:54:32.176Z,24.21
2017-05-30T04:55:32.463Z,24.25
2017-05-30T04:56:32.464Z,24.18
2017-05-30T04:57:32.147Z,24.25
2017-05-30T04:58:32.445Z,24.21
2017-05-30T04:59:32.125Z,24.18
2017-05-30T05:00:32.195Z,24.12
2017-05-30T05:01:32.124Z,24.14
2017-05-30T05:02:32.416Z,24.19
2017-05-30T05:03:31.890Z,24.14
2017-05-30T05:04:32.172Z,24.17
2017-05-30T05:05:32.475Z,24.15
2017-05-30T05:06:32.122Z,24.12
2017-05-30T05:07:32.034Z,24.12
2017-05-30T05:08:32.024Z,24.12
2017-05-30T05:09:31.706Z,24.1
2017-05-30T05:10:32.381Z,24.14
2017-05-30T05:11:32.002Z,24.09
2017-05-30T05:12:31.971Z,24.09
2017-05-30T05:13:32.329Z,24.09
2017-05-30T05:14:31.964Z,24.09
2017-05-30T05:15:31.955Z,24.12
2017-05-30T05:16:31.934Z,24.06
2017-05-30T05:17:31.623Z,24.04
2017-05-30T05:18:31.936Z,24.17
2017-05-30T05:19:31.903Z,24.19
2017-05-30T05:20:31.630Z,24.22
2017-05-30T05:21:32.193Z,24.18
2017-05-30T05:22:31.872Z,24.24
2017-05-30T05:23:32.167Z,24.17
2017-05-30T05:24:32.178Z,24.19
2017-05-30T05:25:31.837Z,24.21
2017-05-30T05:26:31.844Z,24.27
2017-05-30T05:27:31.830Z,24.14
2017-05-30T05:28:32.127Z,24.15
2017-05-30T05:29:31.486Z,24.14
2017-05-30T05:30:32.087Z,24.09
2017-05-30T05:31:32.118Z,24.09
2017-05-30T05:32:31.459Z,24.09
2017-05-30T05:33:31.761Z,24.09
2017-05-30T05:34:32.054Z,24.09
2017-05-30T05:35:31.725Z,24.12
2017-05-30T05:36:32.025Z,24.14
2017-05-30T05:37:32.013Z,24.15
2017-05-30T05:38:32.017Z,24.14
2017-05-30T05:39:31.693Z,24.14
2017-05-30T05:40:31.674Z,24.19
2017-05-30T05:41:31.981Z,24.29
2017-05-30T05:42:31.662Z,24.4
2017-05-30T05:43:31.963Z,24.4
2017-05-30T05:44:31.635Z,24.43
2017-05-30T05:45:31.675Z,24.47
2017-05-30T05:46:31.613Z,24.55
2017-05-30T05:47:32.115Z,24.65
2017-05-30T05:48:31.894Z,24.58
2017-05-30T05:49:31.589Z,24.51
2017-05-30T05:50:31.270Z,24.49
2017-05-30T05:51:31.320Z,24.43
2017-05-30T05:52:31.552Z,24.39
2017-05-30T05:53:31.545Z,24.39
2017-05-30T05:54:31.550Z,24.34
2017-05-30T05:55:31.839Z,24.36
2017-05-30T05:56:31.523Z,24.42
2017-05-30T05:57:31.808Z,24.42
2017-05-30T05:58:31.800Z,24.47
2017-05-30T05:59:31.482Z,24.39
2017-05-30T06:00:31.771Z,24.51
2017-05-30T06:01:31.773Z,24.49
2017-05-30T06:02:31.462Z,24.55
2017-05-30T06:03:31.432Z,24.51
2017-05-30T06:04:31.434Z,24.54
2017-05-30T06:05:31.423Z,24.62
2017-05-30T06:06:31.408Z,24.57
2017-05-30T06:07:31.411Z,24.58
2017-05-30T06:08:31.703Z,24.69
2017-05-30T06:09:31.375Z,24.66
2017-05-30T06:10:31.682Z,24.66
2017-05-30T06:11:31.379Z,24.7
2017-05-30T06:12:31.670Z,24.8
2017-05-30T06:13:31.336Z,24.7
2017-05-30T06:14:31.024Z,24.62
2017-05-30T06:15:31.016Z,24.55
2017-05-30T06:16:31.624Z,24.65
2017-05-30T06:17:31.293Z,24.52
2017-05-30T06:18:31.593Z,24.7
2017-05-30T06:19:31.584Z,24.7
2017-05-30T06:20:31.589Z,24.84
2017-05-30T06:21:31.561Z,24.84
2017-05-30T06:22:31.556Z,24.95
2017-05-30T06:23:31.544Z,25.07
2017-05-30T06:24:31.540Z,25.02
2017-05-30T06:25:31.553Z,25
2017-05-30T06:26:31.512Z,25.05
2017-05-30T06:27:31.494Z,25.12
2017-05-30T06:28:31.187Z,25.14
2017-05-30T06:29:31.493Z,25.08
2017-05-30T06:30:31.474Z,25.07
2017-05-30T06:31:31.472Z,25.07
2017-05-30T06:32:31.457Z,24.9
2017-05-30T06:33:30.828Z,24.85
2017-05-30T06:34:31.432Z,24.8
2017-05-30T06:35:30.844Z,24.84
2017-05-30T06:36:31.423Z,24.9
2017-05-30T06:37:31.401Z,24.9
2017-05-30T06:38:31.404Z,25
2017-05-30T06:39:31.394Z,25.05
2017-05-30T06:40:31.382Z,25.02
2017-05-30T06:41:31.364Z,25.05
2017-05-30T06:42:31.359Z,25
2017-05-30T06:43:31.341Z,25.03
2017-05-30T06:44:31.336Z,24.92
2017-05-30T06:45:31.340Z,25.03
2017-05-30T06:46:31.315Z,25.14
2017-05-30T06:47:31.314Z,25.34
2017-05-30T06:48:30.995Z,25.36
2017-05-30T06:49:31.024Z,25.39
2017-05-30T06:50:31.283Z,25.39
2017-05-30T06:51:31.274Z,25.49
2017-05-30T06:52:31.265Z,25.54
2017-05-30T06:53:31.374Z,25.33
2017-05-30T06:54:30.935Z,25.39
2017-05-30T06:55:32.053Z,25.32
2017-05-30T06:56:32.069Z,25.3
2017-05-30T06:57:30.913Z,25.33
2017-05-30T06:58:31.230Z,25.34
2017-05-30T06:59:30.692Z,25.4
2017-05-30T07:00:31.182Z,25.25
2017-05-30T07:01:30.931Z,25.33
2017-05-30T07:02:31.723Z,25.1
2017-05-30T07:03:31.010Z,25.3
2017-05-30T07:04:31.973Z,25.25
2017-05-30T07:05:31.866Z,25.27
2017-05-30T07:06:30.897Z,25.11
2017-05-30T07:07:31.573Z,25.26
2017-05-30T07:08:31.958Z,25.12
2017-05-30T07:09:31.491Z,25.22
2017-05-30T07:10:31.384Z,25.3
2017-05-30T07:11:31.775Z,25.37
2017-05-30T07:12:31.915Z,25.37
2017-05-30T07:13:31.484Z,25.42
2017-05-30T07:14:31.391Z,25.34
2017-05-30T07:15:31.868Z,25.33
2017-05-30T07:16:31.383Z,25.51
2017-05-30T07:17:31.940Z,25.54
2017-05-30T07:18:31.405Z,25.52
2017-05-30T07:19:31.811Z,25.39
2017-05-30T07:20:31.844Z,25.4
2017-05-30T07:21:31.320Z,25.27
2017-05-30T07:22:30.990Z,25.32
2017-05-30T07:23:30.962Z,25.37
2017-05-30T07:24:30.752Z,25.42
2017-05-30T07:25:30.956Z,25.4
2017-05-30T07:26:30.935Z,25.37
2017-05-30T07:27:31.000Z,25.49
2017-05-30T07:28:30.920Z,25.27
2017-05-30T07:29:30.933Z,25.27
2017-05-30T07:30:30.651Z,25.33
2017-05-30T07:31:30.895Z,25.48
2017-05-30T07:32:30.895Z,25.63
2017-05-30T07:33:30.883Z,25.51
2017-05-30T07:34:30.873Z,25.54
2017-05-30T07:35:30.959Z,25.44
2017-05-30T07:36:30.543Z,25.42
2017-05-30T07:37:30.647Z,25.37
2017-05-30T07:38:30.514Z,25.4
2017-05-30T07:39:30.513Z,25.48
2017-05-30T07:40:30.203Z,25.44
2017-05-30T07:41:30.201Z,25.22
2017-05-30T07:42:30.253Z,25.25
2017-05-30T07:43:30.521Z,25.32
2017-05-30T07:44:30.173Z,25.36
2017-05-30T07:45:30.781Z,25.37
2017-05-30T07:46:30.811Z,25.51
2017-05-30T07:47:30.849Z,25.54
2017-05-30T07:48:30.815Z,25.64
2017-05-30T07:49:30.472Z,25.74
2017-05-30T07:50:30.720Z,25.79
2017-05-30T07:51:30.807Z,25.69
2017-05-30T07:52:30.144Z,25.76
2017-05-30T07:53:30.400Z,25.69
2017-05-30T07:54:30.069Z,25.81
2017-05-30T07:55:30.369Z,25.94
2017-05-30T07:56:30.721Z,26.08
2017-05-30T07:57:30.370Z,26.13
2017-05-30T07:58:30.341Z,25.95
2017-05-30T07:59:30.339Z,26.1
2017-05-30T08:00:30.621Z,26.17
2017-05-30T08:01:30.367Z,26.23
2017-05-30T08:02:30.602Z,26.3
2017-05-30T08:03:30.300Z,26.29
2017-05-30T08:04:30.589Z,26.34
2017-05-30T08:05:30.287Z,26.3
2017-05-30T08:06:30.571Z,26.23
2017-05-30T08:07:30.281Z,26.38
2017-05-30T08:08:30.572Z,26.48
2017-05-30T08:09:30.262Z,26.47
2017-05-30T08:10:30.230Z,26.41
2017-05-30T08:11:30.245Z,26.42
2017-05-30T08:12:29.919Z,26.47
2017-05-30T08:13:30.533Z,26.2
2017-05-30T08:14:30.524Z,26.33
2017-05-30T08:15:30.494Z,26.11
2017-05-30T08:16:30.292Z,26.33
2017-05-30T08:17:30.476Z,26.48
2017-05-30T08:18:30.472Z,26.59
2017-05-30T08:19:30.160Z,26.42
2017-05-30T08:20:30.461Z,26.07
2017-05-30T08:21:30.459Z,26.27
2017-05-30T08:22:30.202Z,26.57
2017-05-30T08:23:30.439Z,26.54
2017-05-30T08:24:30.111Z,26.7
2017-05-30T08:25:29.815Z,26.63
2017-05-30T08:26:30.510Z,26.67
2017-05-30T08:27:30.477Z,26.91
2017-05-30T08:28:30.479Z,27.12
2017-05-30T08:29:30.076Z,27.31
2017-05-30T08:30:30.071Z,27.63
2017-05-30T08:31:30.066Z,27.84
2017-05-30T08:32:30.131Z,27.86
2017-05-30T08:33:30.419Z,27.87
2017-05-30T08:34:30.370Z,27.93
2017-05-30T08:35:30.379Z,27.31
2017-05-30T08:36:30.085Z,27.41
2017-05-30T08:37:30.374Z,27.19
2017-05-30T08:38:30.013Z,27.43
2017-05-30T08:39:30.001Z,27.33
2017-05-30T08:40:30.372Z,27.59
2017-05-30T08:41:30.357Z,27.07
2017-05-30T08:42:29.989Z,27.46
2017-05-30T08:43:30.279Z,27.84
2017-05-30T08:44:29.971Z,27.96
2017-05-30T08:45:29.643Z,27.93
2017-05-30T08:46:30.250Z,27.78
2017-05-30T08:47:30.251Z,27.88
2017-05-30T08:48:29.950Z,27.76
2017-05-30T08:49:30.271Z,27.93
2017-05-30T08:50:29.919Z,28.12
2017-05-30T08:51:29.930Z,28.15
2017-05-30T08:52:30.221Z,28.3
2017-05-30T08:53:30.211Z,28.19
2017-05-30T08:54:30.212Z,28.12
2017-05-30T08:55:29.896Z,28.05
2017-05-30T08:56:29.888Z,28.05
2017-05-30T08:57:29.972Z,27.72
2017-05-30T08:58:30.169Z,27.93
2017-05-30T08:59:29.545Z,28.28
2017-05-30T09:00:29.851Z,28.43
2017-05-30T09:01:30.265Z,28.6
2017-05-30T09:02:29.528Z,28.4
2017-05-30T09:03:30.220Z,28.72
2017-05-30T09:04:30.151Z,28.92
2017-05-30T09:05:29.524Z,29
2017-05-30T09:06:29.510Z,29.21
2017-05-30T09:07:29.874Z,29.33
2017-05-30T09:08:30.132Z,29.44
2017-05-30T09:09:29.813Z,29.99
2017-05-30T09:10:29.798Z,30.21
2017-05-30T09:11:29.511Z,30.48
2017-05-30T09:12:30.150Z,30.59
2017-05-30T09:13:30.083Z,30.43
2017-05-30T09:14:30.082Z,30.29
2017-05-30T09:15:30.066Z,30.11
2017-05-30T09:16:30.161Z,29.98
2017-05-30T09:17:30.098Z,29.79
2017-05-30T09:18:29.764Z,29.58
2017-05-30T09:19:29.449Z,29.61
2017-05-30T09:20:29.741Z,29.68
2017-05-30T09:21:29.750Z,29.61
2017-05-30T09:22:30.051Z,29.54
2017-05-30T09:23:30.063Z,29.35
2017-05-30T09:24:30.066Z,29.64
2017-05-30T09:25:30.049Z,29.61
2017-05-30T09:26:29.738Z,29.7
2017-05-30T09:27:30.017Z,29.51
2017-05-30T09:28:30.038Z,28.84
2017-05-30T09:29:30.034Z,28.46
2017-05-30T09:30:30.010Z,28.43
2017-05-30T09:31:30.021Z,28.52
2017-05-30T09:32:29.712Z,28.86
2017-05-30T09:33:30.032Z,28.98
2017-05-30T09:34:29.684Z,28.92
2017-05-30T09:35:29.686Z,28.62
2017-05-30T09:36:29.988Z,28.7
2017-05-30T09:37:29.366Z,28.77
2017-05-30T09:38:29.671Z,28.93
2017-05-30T09:39:29.972Z,29.15
2017-05-30T09:40:29.967Z,29.51
2017-05-30T09:41:30.048Z,29.58
2017-05-30T09:42:29.958Z,29.62
2017-05-30T09:43:29.942Z,29.44
2017-05-30T09:44:29.945Z,29.42
2017-05-30T09:45:29.931Z,29.51
2017-05-30T09:46:29.651Z,29.61
2017-05-30T09:47:29.946Z,29.62
2017-05-30T09:48:29.948Z,29.66
2017-05-30T09:49:29.928Z,29.73
2017-05-30T09:50:29.610Z,29.76
2017-05-30T09:51:29.899Z,29.74
2017-05-30T09:52:29.898Z,29.68
2017-05-30T09:53:29.900Z,29.39
2017-05-30T09:54:29.893Z,29.27
2017-05-30T09:55:29.899Z,29.1
2017-05-30T09:56:29.895Z,29.05
2017-05-30T09:57:29.890Z,29.15
2017-05-30T09:58:29.889Z,29.24
2017-05-30T09:59:29.869Z,29.22
2017-05-30T10:00:29.241Z,29.39
2017-05-30T10:01:29.549Z,29.15
2017-05-30T10:02:29.860Z,29.12
2017-05-30T10:03:29.541Z,29.03
2017-05-30T10:04:29.220Z,28.74
2017-05-30T10:05:29.834Z,28.45
2017-05-30T10:06:29.533Z,28.64
2017-05-30T10:07:29.814Z,28.84
2017-05-30T10:08:29.509Z,28.87
2017-05-30T10:09:29.809Z,28.79
2017-05-30T10:10:29.197Z,28.84
2017-05-30T10:11:29.497Z,29.06
2017-05-30T10:12:29.806Z,29.15
2017-05-30T10:13:29.486Z,29.1
2017-05-30T10:14:29.182Z,29.15
2017-05-30T10:15:29.773Z,28.95
2017-05-30T10:16:29.474Z,29
2017-05-30T10:17:29.773Z,29.17
2017-05-30T10:18:29.762Z,29.17
2017-05-30T10:19:29.150Z,29.21
2017-05-30T10:20:29.131Z,29.22
2017-05-30T10:21:29.756Z,29.15
2017-05-30T10:22:29.433Z,28.93
2017-05-30T10:23:29.751Z,28.82
2017-05-30T10:24:29.731Z,28.71
2017-05-30T10:25:29.678Z,28.55
2017-05-30T10:26:29.400Z,28.34
2017-05-30T10:27:29.391Z,28.31
2017-05-30T10:28:29.691Z,28.06
2017-05-30T10:29:29.384Z,27.96
2017-05-30T10:30:29.376Z,27.82
2017-05-30T10:31:29.702Z,27.72
2017-05-30T10:32:29.671Z,27.82
2017-05-30T10:33:29.675Z,27.98
2017-05-30T10:34:29.352Z,28.3
2017-05-30T10:35:29.661Z,28.31
2017-05-30T10:36:29.643Z,28.47
2017-05-30T10:37:29.332Z,28.27
2017-05-30T10:38:29.343Z,28.47
2017-05-30T10:39:29.322Z,28.42
2017-05-30T10:40:29.012Z,28.34
2017-05-30T10:41:29.602Z,28.55
2017-05-30T10:42:29.103Z,28.47
2017-05-30T10:43:29.301Z,28.55
2017-05-30T10:44:29.285Z,28.64
2017-05-30T10:45:29.291Z,28.87
2017-05-30T10:46:29.279Z,29.17
2017-05-30T10:47:28.954Z,29.36
2017-05-30T10:48:29.575Z,29.83
2017-05-30T10:49:29.560Z,30.29
2017-05-30T10:50:29.550Z,30.28
2017-05-30T10:51:29.231Z,30.2
2017-05-30T10:52:29.222Z,30.58
2017-05-30T10:53:29.300Z,30.71
2017-05-30T10:54:29.210Z,30.88
2017-05-30T10:55:29.581Z,30.64
2017-05-30T10:56:28.903Z,30.78
2017-05-30T10:57:28.993Z,30.58
2017-05-30T10:58:28.883Z,30.78
2017-05-30T10:59:29.191Z,31
2017-05-30T11:00:28.875Z,31.11
2017-05-30T11:01:29.247Z,30.85
2017-05-30T11:02:29.161Z,30.77
2017-05-30T11:03:29.163Z,30.82
2017-05-30T11:04:29.166Z,31.25
2017-05-30T11:05:29.151Z,31.32
2017-05-30T11:06:29.139Z,31.22
2017-05-30T11:07:29.147Z,31.32
2017-05-30T11:08:29.451Z,31.07
2017-05-30T11:09:29.445Z,30.59
2017-05-30T11:10:29.195Z,30.33
2017-05-30T11:11:29.114Z,30.26
2017-05-30T11:12:28.830Z,30.33
2017-05-30T11:13:29.416Z,30.33
2017-05-30T11:14:29.422Z,30.48
2017-05-30T11:15:29.097Z,30.61
2017-05-30T11:16:29.398Z,30.92
2017-05-30T11:17:29.082Z,30.88
2017-05-30T11:18:29.151Z,30.85
2017-05-30T11:19:29.072Z,30.98
2017-05-30T11:20:29.112Z,30.88
2017-05-30T11:21:29.064Z,30.58
2017-05-30T11:22:29.083Z,30.29
2017-05-30T11:23:29.356Z,30.35
2017-05-30T11:24:29.119Z,30.16
2017-05-30T11:25:29.055Z,30.02
2017-05-30T11:26:29.056Z,29.98
2017-05-30T11:27:29.030Z,29.64
2017-05-30T11:28:29.035Z,29.62
2017-05-30T11:29:29.071Z,29.42
2017-05-30T11:30:28.801Z,29.21
2017-05-30T11:31:29.333Z,28.86
2017-05-30T11:32:29.055Z,28.7
2017-05-30T11:33:28.994Z,28.4
2017-05-30T11:34:28.991Z,28.3
2017-05-30T11:35:28.986Z,28.21
2017-05-30T11:36:28.977Z,28.19
2017-05-30T11:37:29.339Z,28.01
2017-05-30T11:38:29.261Z,28.01
2017-05-30T11:39:29.281Z,28.09
2017-05-30T11:40:29.260Z,28.01
2017-05-30T11:41:29.250Z,27.66
2017-05-30T11:42:28.936Z,27.48
2017-05-30T11:43:28.921Z,27.31
2017-05-30T11:44:28.910Z,27.31
2017-05-30T11:45:29.250Z,27.46
2017-05-30T11:46:28.897Z,27.71
2017-05-30T11:47:28.913Z,28
2017-05-30T11:48:29.197Z,28.43
2017-05-30T11:49:29.179Z,28.77
2017-05-30T11:50:29.160Z,28.8
2017-05-30T11:51:28.866Z,28.9
2017-05-30T11:52:29.171Z,28.82
2017-05-30T11:53:29.159Z,28.9
2017-05-30T11:54:28.853Z,29
2017-05-30T11:55:29.141Z,28.97
2017-05-30T11:56:28.855Z,28.6
2017-05-30T11:57:29.329Z,28.47
2017-05-30T11:58:29.128Z,28.43
2017-05-30T11:59:29.122Z,28.55
2017-05-30T12:00:28.801Z,28.62
2017-05-30T12:01:28.783Z,28.56
2017-05-30T12:02:29.142Z,28.38
2017-05-30T12:03:29.106Z,28.15
2017-05-30T12:04:29.094Z,28.13
2017-05-30T12:05:29.066Z,27.91
2017-05-30T12:06:28.860Z,27.61
2017-05-30T12:07:29.052Z,27.34
2017-05-30T12:08:29.069Z,27.07
2017-05-30T12:09:28.746Z,27.04
2017-05-30T12:10:29.117Z,26.86
2017-05-30T12:11:29.084Z,26.88
2017-05-30T12:12:28.406Z,26.67
2017-05-30T12:13:29.070Z,26.69
2017-05-30T12:14:29.052Z,26.57
2017-05-30T12:15:29.000Z,26.57
2017-05-30T12:16:28.378Z,26.49
2017-05-30T12:17:28.704Z,26.13
2017-05-30T12:18:29.006Z,25.51
2017-05-30T12:19:28.971Z,25.27
2017-05-30T12:20:28.986Z,25.1
2017-05-30T12:21:28.945Z,25.27
2017-05-30T12:22:28.936Z,25.27
2017-05-30T12:23:28.913Z,25.27
2017-05-30T12:24:28.626Z,25.52
2017-05-30T12:25:28.603Z,25.37
2017-05-30T12:26:28.303Z,25.39
2017-05-30T12:27:28.904Z,25.55
2017-05-30T12:28:28.883Z,25.37
2017-05-30T12:29:28.251Z,25.45
2017-05-30T12:30:28.862Z,25.52
2017-05-30T12:31:28.551Z,25.67
2017-05-30T12:32:28.853Z,25.71
2017-05-30T12:33:28.540Z,25.73
2017-05-30T12:34:28.653Z,25.89
2017-05-30T12:35:28.802Z,25.39
2017-05-30T12:36:28.594Z,25.47
2017-05-30T12:37:28.785Z,25.47
2017-05-30T12:38:28.777Z,25.48
2017-05-30T12:39:28.776Z,25.58
2017-05-30T12:40:28.471Z,25.48
2017-05-30T12:41:28.769Z,25.67
2017-05-30T12:42:28.544Z,25.67
2017-05-30T12:43:28.131Z,25.67
2017-05-30T12:44:28.526Z,25.81
2017-05-30T12:45:28.122Z,25.95
2017-05-30T12:46:28.400Z,26.22
2017-05-30T12:47:28.400Z,26.24
2017-05-30T12:48:28.391Z,26.34
2017-05-30T12:49:28.428Z,26.38
2017-05-30T12:50:28.677Z,26.45
2017-05-30T12:51:28.361Z,26.57
2017-05-30T12:52:28.331Z,26.75
2017-05-30T12:53:28.782Z,26.64
2017-05-30T12:54:28.027Z,26.47
2017-05-30T12:55:28.724Z,26.45